createdAt,value
2023-02-24T00:01:25.190Z,39.33
2023-02-24T00:03:53.440Z,39.60
2023-02-24T00:06:20.378Z,39.81
2023-02-24T00:08:47.662Z,39.52
2023-02-24T00:11:17.830Z,39.52
2023-02-24T00:13:48.338Z,39.38
2023-02-24T00:16:17.623Z,39.38
2023-02-24T00:18:45.666Z,39.79
2023-02-24T00:21:15.276Z,39.47
2023-02-24T00:23:43.192Z,39.36
2023-02-24T00:26:11.104Z,39.88
2023-02-24T00:28:38.378Z,39.84
2023-02-24T00:31:08.616Z,39.43
2023-02-24T00:33:35.637Z,39.86
2023-02-24T00:36:05.512Z,39.89
2023-02-24T00:38:36.066Z,39.72
2023-02-24T00:41:08.621Z,39.88
2023-02-24T00:43:37.497Z,39.67
2023-02-24T00:46:11.542Z,40.12
2023-02-24T00:48:42.234Z,40.06
2023-02-24T00:51:10.561Z,40.04
2023-02-24T00:53:39.213Z,40.52
2023-02-24T00:56:07.445Z,40.36
2023-02-24T00:58:35.509Z,40.69
2023-02-24T01:01:05.469Z,40.48
2023-02-24T01:03:32.351Z,40.67
2023-02-24T01:06:03.337Z,40.89
2023-02-24T01:08:31.042Z,40.94
2023-02-24T01:11:02.218Z,40.74
2023-02-24T01:13:31.262Z,40.72
2023-02-24T01:16:02.509Z,40.98
2023-02-24T01:18:31.344Z,40.62
2023-02-24T01:20:59.418Z,41.00
2023-02-24T01:23:26.295Z,40.95
2023-02-24T01:25:53.746Z,40.72
2023-02-24T01:28:20.628Z,40.93
2023-02-24T01:30:49.789Z,41.08
2023-02-24T01:33:16.632Z,40.68
2023-02-24T01:35:45.646Z,40.73
2023-02-24T01:38:12.448Z,40.67
2023-02-24T01:40:39.352Z,40.84
2023-02-24T01:43:09.098Z,41.08
2023-02-24T01:45:37.261Z,41.02
2023-02-24T01:48:06.717Z,41.19
2023-02-24T01:50:36.225Z,41.20
2023-02-24T01:53:05.672Z,41.09
2023-02-24T01:55:34.721Z,40.73
2023-02-24T01:58:05.116Z,41.16
2023-02-24T02:00:34.952Z,40.92
2023-02-24T02:03:04.328Z,40.62
2023-02-24T02:05:31.025Z,40.74
2023-02-24T02:07:58.013Z,40.99
2023-02-24T02:10:25.663Z,41.07
2023-02-24T02:12:52.402Z,40.85
2023-02-24T02:15:20.934Z,40.64
2023-02-24T02:17:51.440Z,40.86
2023-02-24T02:49:57.774Z,41.21
2023-02-24T02:52:32.170Z,41.11
2023-02-24T02:55:03.989Z,41.20
2023-02-24T02:57:31.784Z,41.27
2023-02-24T03:00:01.819Z,41.35
2023-02-24T03:02:31.344Z,41.11
2023-02-24T03:05:00.371Z,41.47
2023-02-24T03:07:32.072Z,41.26
2023-02-24T03:10:01.541Z,41.57
2023-02-24T03:12:31.035Z,41.30
2023-02-24T03:14:59.598Z,41.39
2023-02-24T03:17:30.320Z,41.77
2023-02-24T03:20:00.580Z,41.50
2023-02-24T03:22:34.771Z,41.91
2023-02-24T03:25:04.071Z,41.60
2023-02-24T03:27:35.568Z,41.82
2023-02-24T03:30:07.433Z,41.94
2023-02-24T03:32:44.381Z,41.80
2023-02-24T03:35:15.609Z,41.78
2023-02-24T03:37:42.722Z,41.95
2023-02-24T03:40:14.797Z,41.94
2023-02-24T03:42:44.121Z,42.09
2023-02-24T03:45:11.599Z,41.87
2023-02-24T03:47:40.937Z,41.89
2023-02-24T03:50:11.818Z,41.86
2023-02-24T03:52:41.765Z,42.15
2023-02-24T03:55:10.327Z,41.85
2023-02-24T03:57:50.459Z,42.02
2023-02-24T04:00:24.296Z,41.96
2023-02-24T04:02:57.550Z,41.98
2023-02-24T04:05:27.744Z,41.98
2023-02-24T04:07:58.006Z,42.05
2023-02-24T04:10:31.708Z,41.86
2023-02-24T04:13:02.377Z,41.71
2023-02-24T04:15:32.920Z,42.00
2023-02-24T04:18:01.660Z,41.88
2023-02-24T04:20:31.332Z,42.12
2023-02-24T04:23:01.364Z,42.08
2023-02-24T04:25:28.407Z,41.75
2023-02-24T04:27:58.495Z,41.92
2023-02-24T04:30:27.340Z,41.88
2023-02-24T04:32:54.333Z,42.18
2023-02-24T04:35:23.065Z,42.19
2023-02-24T04:37:51.270Z,42.13
2023-02-24T04:40:18.962Z,42.22
2023-02-24T04:42:47.196Z,42.01
2023-02-24T04:45:16.645Z,42.05
2023-02-24T04:47:46.430Z,41.71
2023-02-24T04:50:23.160Z,41.98
2023-02-24T04:52:50.880Z,42.19
2023-02-24T04:55:18.612Z,41.87
2023-02-24T04:57:46.236Z,41.93
2023-02-24T05:00:20.931Z,41.89
2023-02-24T05:02:48.626Z,42.08
2023-02-24T05:05:15.981Z,41.86
2023-02-24T05:07:47.840Z,41.92
2023-02-24T05:10:15.621Z,41.76
2023-02-24T05:12:42.796Z,42.14
2023-02-24T05:15:09.925Z,41.80
2023-02-24T05:17:36.872Z,41.80
2023-02-24T05:20:07.360Z,41.84
2023-02-24T05:22:36.386Z,41.44
2023-02-24T05:25:05.133Z,41.88
2023-02-24T05:27:32.073Z,41.61
2023-02-24T05:29:58.801Z,41.92
2023-02-24T05:32:25.674Z,42.03
2023-02-24T05:34:52.647Z,42.25
2023-02-24T05:37:19.434Z,42.37
2023-02-24T05:39:46.224Z,42.27
2023-02-24T05:42:13.114Z,42.15
2023-02-24T05:44:39.837Z,42.51
2023-02-24T05:47:10.632Z,42.55
2023-02-24T05:49:38.964Z,42.25
2023-02-24T05:52:09.263Z,41.99
2023-02-24T05:54:38.864Z,42.21
2023-02-24T05:57:09.378Z,42.10
2023-02-24T05:59:36.312Z,42.39
2023-02-24T06:02:07.817Z,42.50
2023-02-24T06:04:38.447Z,42.33
2023-02-24T06:07:06.215Z,42.05
2023-02-24T06:09:33.051Z,42.13
2023-02-24T06:11:59.857Z,41.84
2023-02-24T06:14:28.456Z,41.97
2023-02-24T06:16:55.174Z,42.19
2023-02-24T06:19:21.967Z,42.24
2023-02-24T06:21:49.023Z,42.36
2023-02-24T06:24:15.999Z,42.19
2023-02-24T06:26:44.221Z,41.91
2023-02-24T06:29:15.332Z,41.88
2023-02-24T06:31:43.278Z,42.15
2023-02-24T06:34:10.801Z,42.13
2023-02-24T06:36:38.258Z,41.97
2023-02-24T06:39:08.321Z,42.04
2023-02-24T06:41:35.749Z,41.95
2023-02-24T06:44:02.514Z,41.96
2023-02-24T06:46:29.397Z,42.25
2023-02-24T06:48:58.219Z,42.06
2023-02-24T06:51:24.944Z,42.44
2023-02-24T06:53:52.386Z,42.46
2023-02-24T06:56:20.023Z,42.09
2023-02-24T06:58:48.168Z,42.25
2023-02-24T07:01:16.390Z,42.75
2023-02-24T07:04:02.922Z,42.38
2023-02-24T07:06:31.372Z,42.36
2023-02-24T07:08:58.715Z,42.20
2023-02-24T07:11:28.325Z,42.14
2023-02-24T07:13:55.295Z,42.16
2023-02-24T07:16:26.405Z,42.03
2023-02-24T07:18:56.988Z,42.83
2023-02-24T07:21:25.000Z,41.95
2023-02-24T07:23:58.910Z,42.08
2023-02-24T07:26:26.980Z,41.57
2023-02-24T07:28:56.816Z,41.75
2023-02-24T07:31:25.121Z,41.10
2023-02-24T07:33:56.866Z,38.28
2023-02-24T07:36:24.554Z,38.34
2023-02-24T07:38:53.141Z,37.82
2023-02-24T07:41:23.266Z,37.64
2023-02-24T07:43:51.893Z,37.59
2023-02-24T07:46:21.606Z,37.67
2023-02-24T07:48:48.351Z,37.52
2023-02-24T07:51:16.968Z,37.38
2023-02-24T07:53:48.738Z,37.58
2023-02-24T07:56:19.767Z,37.23
2023-02-24T07:58:53.350Z,37.14
2023-02-24T08:01:23.538Z,37.13
2023-02-24T08:03:52.344Z,37.04
2023-02-24T08:06:27.478Z,36.63
2023-02-24T08:08:59.025Z,37.13
2023-02-24T08:11:26.801Z,36.94
2023-02-24T08:13:54.029Z,36.57
2023-02-24T08:16:20.860Z,36.95
2023-02-24T08:18:49.388Z,36.67
2023-02-24T08:21:17.083Z,36.61
2023-02-24T08:23:45.225Z,36.28
2023-02-24T08:26:13.041Z,36.60
2023-02-24T08:28:40.474Z,36.92
2023-02-24T08:31:07.462Z,37.09
2023-02-24T08:33:37.557Z,37.14
2023-02-24T08:36:04.586Z,37.13
2023-02-24T08:38:40.147Z,36.50
2023-02-24T08:41:11.925Z,36.49
2023-02-24T08:43:39.820Z,36.20
2023-02-24T08:46:12.867Z,36.39
2023-02-24T08:48:42.623Z,35.96
2023-02-24T08:51:12.331Z,35.78
2023-02-24T08:53:40.839Z,35.90
2023-02-24T08:56:11.641Z,35.81
2023-02-24T08:58:46.722Z,35.76
2023-02-24T09:01:20.757Z,35.59
2023-02-24T09:03:49.047Z,35.60
2023-02-24T09:06:25.565Z,35.79
2023-02-24T09:09:13.852Z,35.80
2023-02-24T09:11:44.305Z,35.51
2023-02-24T09:14:32.219Z,35.95
2023-02-24T09:17:02.652Z,35.98
2023-02-24T09:19:35.917Z,35.41
2023-02-24T09:22:21.204Z,35.66
2023-02-24T09:24:51.315Z,35.44
2023-02-24T09:27:18.954Z,35.35
2023-02-24T09:29:49.583Z,35.13
2023-02-24T09:32:16.578Z,35.16
2023-02-24T09:34:44.639Z,35.06
2023-02-24T09:37:17.691Z,34.91
2023-02-24T09:39:50.461Z,35.17
2023-02-24T09:42:20.738Z,35.09
2023-02-24T09:44:52.998Z,35.05
2023-02-24T09:47:25.961Z,35.36
2023-02-24T09:49:56.804Z,35.06
2023-02-24T09:52:39.982Z,35.75
2023-02-24T09:55:12.906Z,35.34
2023-02-24T09:58:05.961Z,35.29
2023-02-24T10:00:33.885Z,35.38
2023-02-24T10:03:04.078Z,35.62
2023-02-24T10:05:38.877Z,35.47
2023-02-24T10:08:13.997Z,35.73
2023-02-24T10:11:01.073Z,35.41
2023-02-24T10:13:32.816Z,35.43
2023-02-24T10:16:06.356Z,35.72
2023-02-24T10:18:36.412Z,35.46
2023-02-24T10:21:15.735Z,35.42
2023-02-24T10:23:45.852Z,35.40
2023-02-24T10:26:22.252Z,35.37
2023-02-24T10:28:53.757Z,35.35
2023-02-24T10:31:27.218Z,35.67
2023-02-24T10:33:57.597Z,35.39
2023-02-24T10:36:35.780Z,35.40
2023-02-24T10:39:08.753Z,35.16
2023-02-24T10:41:40.257Z,35.32
2023-02-24T10:44:11.829Z,35.15
2023-02-24T10:46:42.172Z,35.29
2023-02-24T10:49:11.995Z,35.60
2023-02-24T10:51:40.726Z,35.59
2023-02-24T10:54:11.065Z,35.52
2023-02-24T10:56:44.835Z,35.67
2023-02-24T10:59:17.764Z,35.62
2023-02-24T11:01:55.204Z,35.35
2023-02-24T11:04:33.684Z,35.32
2023-02-24T11:07:09.956Z,35.39
2023-02-24T11:09:45.877Z,35.79
2023-02-24T11:12:16.317Z,35.91
2023-02-24T11:14:49.496Z,35.54
2023-02-24T11:17:20.418Z,35.80
2023-02-24T11:19:50.712Z,35.89
2023-02-24T11:22:20.712Z,35.76
2023-02-24T11:24:48.560Z,36.28
2023-02-24T11:27:20.725Z,35.80
2023-02-24T11:29:58.809Z,35.98
2023-02-24T11:32:30.563Z,35.95
2023-02-24T11:35:00.590Z,36.07
2023-02-24T11:37:34.879Z,36.24
2023-02-24T11:40:06.631Z,36.35
2023-02-24T11:42:38.267Z,36.60
2023-02-24T11:45:09.532Z,36.61
2023-02-24T11:47:41.677Z,36.82
2023-02-24T11:50:09.251Z,36.92
2023-02-24T11:52:39.065Z,36.96
2023-02-24T11:55:12.738Z,36.65
2023-02-24T11:57:42.287Z,37.08
2023-02-24T12:00:13.663Z,36.93
2023-02-24T12:02:43.783Z,37.19
2023-02-24T12:05:13.974Z,37.48
2023-02-24T12:07:42.920Z,37.14
2023-02-24T12:10:16.961Z,37.39
2023-02-24T12:12:47.299Z,37.60
2023-02-24T12:15:20.321Z,37.68
2023-02-24T12:17:50.183Z,37.61
2023-02-24T12:20:20.234Z,37.86
2023-02-24T12:22:52.578Z,37.94
2023-02-24T12:25:25.465Z,38.48
2023-02-24T12:27:55.343Z,38.45
2023-02-24T12:30:34.484Z,38.65
2023-02-24T12:33:09.398Z,38.86
2023-02-24T12:35:39.744Z,38.62
2023-02-24T12:38:09.705Z,39.12
2023-02-24T12:40:39.623Z,38.88
2023-02-24T12:43:09.810Z,39.29
2023-02-24T12:45:39.809Z,38.92
2023-02-24T12:48:07.025Z,39.06
2023-02-24T12:50:37.556Z,39.09
2023-02-24T12:53:09.328Z,39.17
2023-02-24T12:55:44.364Z,39.24
2023-02-24T12:58:12.656Z,39.57
2023-02-24T13:00:42.519Z,39.43
2023-02-24T13:03:12.451Z,39.59
2023-02-24T13:05:45.865Z,39.76
2023-02-24T13:08:17.117Z,39.31
2023-02-24T13:10:47.176Z,39.64
2023-02-24T13:13:17.095Z,39.46
2023-02-24T13:15:47.173Z,39.88
2023-02-24T13:18:23.560Z,39.72
2023-02-24T13:21:02.504Z,39.80
2023-02-24T13:23:29.370Z,39.84
2023-02-24T13:25:56.403Z,39.75
2023-02-24T13:28:26.311Z,39.77
2023-02-24T13:30:56.283Z,39.55
2023-02-24T13:33:27.477Z,39.91
2023-02-24T13:36:06.971Z,39.88
2023-02-24T13:38:38.960Z,39.96
2023-02-24T13:41:07.299Z,40.10
2023-02-24T13:43:34.359Z,40.17
2023-02-24T13:46:04.579Z,39.99
2023-02-24T13:48:32.828Z,39.99
2023-02-24T13:51:02.761Z,40.17
2023-02-24T13:53:34.815Z,40.27
2023-02-24T13:56:05.286Z,39.86
2023-02-24T13:58:35.283Z,40.20
2023-02-24T14:01:05.245Z,39.98
2023-02-24T14:03:32.829Z,39.94
2023-02-24T14:06:00.425Z,39.97
2023-02-24T14:08:35.806Z,40.27
2023-02-24T14:11:04.227Z,40.21
2023-02-24T14:13:34.459Z,40.20
2023-02-24T14:16:02.002Z,40.42
2023-02-24T14:18:31.380Z,40.04
2023-02-24T14:20:58.781Z,40.06
2023-02-24T14:23:27.370Z,40.54
2023-02-24T14:25:57.448Z,40.58
2023-02-24T14:28:29.014Z,40.41
2023-02-24T14:30:58.798Z,40.55
2023-02-24T14:33:29.065Z,40.45
2023-02-24T14:35:56.157Z,40.50
2023-02-24T14:38:26.124Z,40.28
2023-02-24T14:40:56.314Z,40.24
2023-02-24T14:43:23.247Z,40.64
2023-02-24T14:45:54.689Z,40.26
2023-02-24T14:48:24.614Z,40.33
2023-02-24T14:50:54.946Z,40.48
2023-02-24T14:53:24.285Z,40.77
2023-02-24T14:55:56.252Z,40.82
2023-02-24T14:58:29.652Z,40.72
2023-02-24T15:01:00.740Z,40.82
2023-02-24T15:03:30.959Z,40.75
2023-02-24T15:06:00.437Z,40.61
2023-02-24T15:08:32.075Z,40.79
2023-02-24T15:10:59.083Z,40.52
2023-02-24T15:13:29.071Z,40.67
2023-02-24T15:15:57.353Z,40.86
2023-02-24T15:18:26.708Z,40.55
2023-02-24T15:20:56.642Z,40.58
2023-02-24T15:23:26.340Z,40.44
2023-02-24T15:25:53.184Z,40.47
2023-02-24T15:28:23.198Z,40.64
2023-02-24T15:30:53.990Z,40.89
2023-02-24T15:33:23.625Z,40.89
2023-02-24T15:35:54.226Z,40.87
2023-02-24T15:38:24.168Z,40.65
2023-02-24T15:40:53.187Z,41.04
2023-02-24T15:43:32.026Z,41.08
2023-02-24T15:45:59.109Z,40.94
2023-02-24T15:48:29.966Z,40.68
2023-02-24T15:51:02.476Z,41.01
2023-02-24T15:53:29.329Z,40.91
2023-02-24T15:55:56.236Z,40.67
2023-02-24T15:58:23.375Z,40.66
2023-02-24T16:00:52.668Z,41.11
2023-02-24T16:03:19.868Z,40.72
2023-02-24T16:05:47.209Z,40.63
2023-02-24T16:08:17.436Z,40.86
2023-02-24T16:10:44.657Z,40.69
2023-02-24T16:13:19.401Z,40.84
2023-02-24T16:15:47.029Z,40.44
2023-02-24T16:18:21.624Z,40.87
2023-02-24T16:20:54.880Z,40.51
2023-02-24T16:23:25.790Z,40.59
2023-02-24T16:25:55.552Z,40.37
2023-02-24T16:28:23.359Z,40.17
2023-02-24T16:30:52.917Z,39.96
2023-02-24T16:33:22.751Z,40.18
2023-02-24T16:35:53.586Z,39.81
2023-02-24T16:38:23.297Z,39.81
2023-02-24T16:40:50.304Z,40.08
2023-02-24T16:43:17.290Z,39.92
2023-02-24T16:45:45.378Z,39.79
2023-02-24T16:48:16.927Z,39.76
2023-02-24T16:50:44.162Z,39.73
2023-02-24T16:53:14.493Z,39.49
2023-02-24T16:55:43.594Z,39.55
2023-02-24T16:58:11.833Z,39.25
2023-02-24T17:00:40.348Z,39.44
2023-02-24T17:03:13.764Z,39.49
2023-02-24T17:05:41.293Z,39.22
2023-02-24T17:08:10.704Z,39.24
2023-02-24T17:10:40.555Z,39.30
2023-02-24T17:13:08.086Z,39.02
2023-02-24T17:15:35.285Z,38.99
2023-02-24T17:18:05.626Z,38.58
2023-02-24T17:20:33.197Z,38.50
2023-02-24T17:23:00.411Z,38.38
2023-02-24T17:25:31.379Z,38.89
2023-02-24T17:27:59.123Z,38.70
2023-02-24T17:30:28.726Z,38.72
2023-02-24T17:32:56.907Z,38.70
2023-02-24T17:35:24.206Z,38.69
2023-02-24T17:37:51.436Z,38.61
2023-02-24T17:40:18.735Z,38.50
2023-02-24T17:42:45.889Z,38.33
2023-02-24T17:45:14.430Z,38.73
2023-02-24T17:47:41.917Z,38.41
2023-02-24T17:50:12.151Z,38.86
2023-02-24T17:52:39.677Z,38.87
2023-02-24T17:55:07.889Z,38.43
2023-02-24T17:57:35.449Z,38.74
2023-02-24T18:00:05.049Z,38.78
2023-02-24T18:02:31.978Z,38.78
2023-02-24T18:04:58.956Z,38.61
2023-02-24T18:07:25.831Z,38.86
2023-02-24T18:09:52.812Z,38.40
2023-02-24T18:12:21.329Z,38.68
2023-02-24T18:15:05.860Z,38.53
2023-02-24T18:17:37.369Z,38.84
2023-02-24T18:20:05.303Z,38.72
2023-02-24T18:22:34.413Z,38.63
2023-02-24T18:25:01.455Z,38.76
2023-02-24T18:27:28.392Z,38.68
2023-02-24T18:29:55.426Z,38.99
2023-02-24T18:32:23.331Z,38.42
2023-02-24T18:34:50.261Z,38.42
2023-02-24T18:37:17.061Z,38.99
2023-02-24T18:39:43.923Z,38.50
2023-02-24T18:42:11.905Z,38.85
2023-02-24T18:44:38.901Z,39.17
2023-02-24T18:47:11.639Z,38.77
2023-02-24T18:49:38.712Z,38.74
2023-02-24T18:52:07.691Z,38.65
2023-02-24T18:54:34.966Z,39.03
2023-02-24T18:57:02.250Z,38.62
2023-02-24T18:59:29.205Z,38.71
2023-02-24T19:01:57.212Z,38.71
2023-02-24T19:04:25.499Z,38.84
2023-02-24T19:06:54.707Z,38.68
2023-02-24T19:09:22.625Z,39.01
2023-02-24T19:11:50.315Z,38.76
2023-02-24T19:14:17.211Z,38.72
2023-02-24T19:16:44.396Z,39.08
2023-02-24T19:19:12.594Z,38.70
2023-02-24T19:21:39.451Z,38.91
2023-02-24T19:24:08.572Z,39.06
2023-02-24T19:26:37.678Z,39.10
2023-02-24T19:29:04.812Z,38.98
2023-02-24T19:31:33.394Z,38.94
2023-02-24T19:34:02.572Z,39.13
2023-02-24T19:36:31.056Z,38.89
2023-02-24T19:38:57.838Z,39.02
2023-02-24T19:41:24.945Z,39.01
2023-02-24T19:43:51.775Z,39.25
2023-02-24T19:46:18.707Z,39.05
2023-02-24T19:48:46.987Z,39.33
2023-02-24T19:51:15.540Z,39.28
2023-02-24T19:53:42.370Z,39.14
2023-02-24T19:56:09.155Z,39.42
2023-02-24T19:58:36.273Z,39.34
2023-02-24T20:01:05.017Z,39.55
2023-02-24T20:03:31.890Z,39.19
2023-02-24T20:05:58.781Z,39.62
2023-02-24T20:08:25.686Z,39.47
2023-02-24T20:10:57.807Z,39.48
2023-02-24T20:13:24.585Z,39.54
2023-02-24T20:15:51.368Z,39.43
2023-02-24T20:18:18.288Z,39.79
2023-02-24T20:20:46.650Z,39.46
2023-02-24T20:23:13.438Z,39.84
2023-02-24T20:25:41.370Z,39.79
2023-02-24T20:28:08.152Z,39.53
2023-02-24T20:30:37.156Z,39.98
2023-02-24T20:33:04.092Z,39.83
2023-02-24T20:35:30.887Z,40.11
2023-02-24T20:37:57.731Z,40.06
2023-02-24T20:40:24.629Z,40.12
2023-02-24T20:42:53.698Z,39.89
2023-02-24T20:45:20.610Z,40.15
2023-02-24T20:47:47.375Z,39.81
2023-02-24T20:50:15.000Z,39.91
2023-02-24T20:52:41.787Z,40.11
2023-02-24T20:55:10.805Z,40.41
2023-02-24T20:57:37.631Z,40.42
2023-02-24T21:00:08.408Z,40.37
2023-02-24T21:02:36.734Z,40.17
2023-02-24T21:05:05.909Z,39.98
2023-02-24T21:07:32.726Z,40.05
2023-02-24T21:10:01.843Z,40.11
2023-02-24T21:12:28.699Z,40.46
2023-02-24T21:14:55.539Z,40.18
2023-02-24T21:17:22.473Z,40.25
2023-02-24T21:19:49.994Z,40.37
2023-02-24T21:22:16.833Z,40.13
2023-02-24T21:24:43.676Z,40.34
2023-02-24T21:27:12.906Z,40.49
2023-02-24T21:29:40.724Z,40.31
2023-02-24T21:32:07.723Z,40.20
2023-02-24T21:34:35.065Z,40.51
2023-02-24T21:37:01.970Z,40.37
2023-02-24T21:39:28.927Z,40.55
2023-02-24T21:41:55.799Z,40.28
2023-02-24T21:44:22.555Z,40.71
2023-02-24T21:46:50.009Z,40.70
2023-02-24T21:49:18.369Z,40.77
2023-02-24T21:51:46.670Z,40.66
2023-02-24T21:54:14.438Z,40.74
2023-02-24T21:56:41.646Z,40.61
2023-02-24T21:59:09.342Z,40.58
2023-02-24T22:01:38.347Z,40.69
2023-02-24T22:04:07.315Z,40.47
2023-02-24T22:06:34.711Z,40.72
2023-02-24T22:09:01.924Z,40.80
2023-02-24T22:11:32.542Z,40.92
2023-02-24T22:13:59.292Z,40.20
2023-02-24T22:16:26.579Z,40.02
2023-02-24T22:18:55.378Z,39.86
2023-02-24T22:21:24.633Z,39.66
2023-02-24T22:23:52.506Z,39.75
2023-02-24T22:26:19.888Z,39.37
2023-02-24T22:28:49.496Z,39.35
2023-02-24T22:31:17.888Z,39.54
2023-02-24T22:33:44.858Z,39.33
2023-02-24T22:36:12.808Z,39.23
2023-02-24T22:38:40.003Z,39.50
2023-02-24T22:41:08.134Z,40.29
2023-02-24T22:43:35.330Z,40.29
2023-02-24T22:46:04.409Z,40.38
2023-02-24T22:48:34.941Z,40.22
2023-02-24T22:51:03.196Z,40.27
2023-02-24T22:53:33.789Z,39.86
2023-02-24T22:56:00.566Z,39.97
2023-02-24T22:58:29.727Z,40.11
2023-02-24T23:00:56.635Z,40.35
2023-02-24T23:03:24.666Z,40.13
2023-02-24T23:05:54.481Z,39.78
2023-02-24T23:08:21.248Z,40.16
2023-02-24T23:10:48.057Z,40.20
2023-02-24T23:13:14.888Z,40.09
2023-02-24T23:15:41.688Z,40.16
2023-02-24T23:18:08.549Z,39.86
2023-02-24T23:20:35.312Z,40.01
2023-02-24T23:23:02.116Z,39.69
2023-02-24T23:25:30.230Z,39.84
2023-02-24T23:27:59.628Z,39.58
2023-02-24T23:30:26.455Z,39.79
2023-02-24T23:32:53.378Z,39.73
2023-02-24T23:35:20.281Z,39.64
2023-02-24T23:37:47.078Z,39.83
2023-02-24T23:40:15.485Z,39.97
2023-02-24T23:42:42.996Z,40.00
2023-02-24T23:45:10.935Z,39.84
2023-02-24T23:47:38.723Z,39.94
2023-02-24T23:50:06.030Z,39.94
2023-02-24T23:52:34.984Z,39.85
2023-02-24T23:55:02.531Z,39.61
2023-02-24T23:57:30.058Z,39.47
2023-02-24T23:59:57.799Z,39.82
